createdAt,value
2022-09-28T00:01:27.561Z,97288.94
2022-09-28T00:04:00.720Z,97275.38
2022-09-28T00:06:33.446Z,97276.50
2022-09-28T00:09:11.492Z,97288.25
2022-09-28T00:11:48.439Z,97287.78
2022-09-28T00:14:22.987Z,97283.88
2022-09-28T00:19:42.588Z,97277.56
2022-09-28T00:22:24.052Z,97283.94
2022-09-28T00:24:53.146Z,97281.31
2022-09-28T00:27:32.038Z,97281.56
2022-09-28T00:30:09.205Z,97283.38
2022-09-28T00:32:41.373Z,97273.00
2022-09-28T00:35:19.168Z,97271.78
2022-09-28T00:37:50.968Z,97261.97
2022-09-28T00:40:25.169Z,97255.97
2022-09-28T00:43:01.655Z,97256.91
2022-09-28T00:45:34.552Z,97248.97
2022-09-28T00:48:16.954Z,97251.78
2022-09-28T00:50:47.671Z,97247.59
2022-09-28T00:53:33.457Z,97259.19
2022-09-28T00:56:16.810Z,97259.25
2022-09-28T00:58:55.011Z,97260.66
2022-09-28T01:01:28.545Z,97257.31
2022-09-28T01:03:59.100Z,97256.56
2022-09-28T01:06:36.795Z,97262.72
2022-09-28T01:09:18.083Z,97255.78
2022-09-28T01:11:49.672Z,97245.88
2022-09-28T01:14:23.034Z,97233.03
2022-09-28T01:17:19.464Z,97251.09
2022-09-28T01:20:15.963Z,97243.88
2022-09-28T01:23:17.899Z,97244.91
2022-09-28T01:26:04.965Z,97235.47
2022-09-28T01:28:35.781Z,97222.44
2022-09-28T01:31:26.709Z,97227.00
2022-09-28T01:34:17.690Z,97224.72
2022-09-28T01:36:58.098Z,97225.88
2022-09-28T01:39:49.860Z,97216.22
2022-09-28T01:42:31.344Z,97228.81
2022-09-28T01:45:10.211Z,97226.97
2022-09-28T01:47:41.400Z,97230.66
2022-09-28T01:50:16.474Z,97225.56
2022-09-28T01:53:12.324Z,97215.75
2022-09-28T01:55:51.681Z,97206.94
2022-09-28T01:58:48.482Z,97235.25
2022-09-28T02:01:55.788Z,97231.69
2022-09-28T02:04:52.785Z,97229.97
2022-09-28T02:07:30.684Z,97241.19
2022-09-28T02:10:07.112Z,97228.78
2022-09-28T02:13:02.504Z,97227.22
2022-09-28T02:15:46.050Z,97235.28
2022-09-28T02:18:24.446Z,97227.50
2022-09-28T02:21:14.612Z,97240.34
2022-09-28T02:23:59.356Z,97236.59
2022-09-28T02:26:35.457Z,97238.38
2022-09-28T02:29:05.484Z,97242.81
2022-09-28T02:31:37.913Z,97239.78
2022-09-28T02:34:10.466Z,97229.22
2022-09-28T02:36:47.196Z,97224.00
2022-09-28T02:39:25.092Z,97236.59
2022-09-28T02:42:51.039Z,97237.28
2022-09-28T02:45:52.051Z,97239.84
2022-09-28T02:49:35.132Z,97234.00
2022-09-28T02:52:37.172Z,97230.09
2022-09-28T02:59:03.977Z,97234.38
2022-09-28T03:01:44.771Z,97216.72
2022-09-28T03:04:54.671Z,97224.97
2022-09-28T03:08:31.120Z,97226.38
2022-09-28T03:11:09.737Z,97231.72
2022-09-28T03:13:44.935Z,97234.06
2022-09-28T03:16:25.240Z,97239.63
2022-09-28T03:19:06.798Z,97235.31
2022-09-28T03:21:40.323Z,97245.69
2022-09-28T03:24:24.679Z,97239.16
2022-09-28T03:26:55.415Z,97216.34
2022-09-28T03:29:24.333Z,97243.06
2022-09-28T03:32:05.093Z,97237.81
2022-09-28T03:34:37.036Z,97232.56
2022-09-28T03:37:07.766Z,97231.88
2022-09-28T03:39:40.105Z,97229.94
2022-09-28T03:42:11.599Z,97231.06
2022-09-28T03:44:48.370Z,97232.88
2022-09-28T03:47:19.521Z,97231.97
2022-09-28T03:49:55.661Z,97234.75
2022-09-28T03:52:25.312Z,97239.59
2022-09-28T03:54:56.272Z,97228.09
2022-09-28T03:57:25.312Z,97225.06
2022-09-28T03:59:56.411Z,97225.16
2022-09-28T04:02:26.912Z,97218.78
2022-09-28T04:05:18.211Z,97216.63
2022-09-28T04:08:05.513Z,97209.53
2022-09-28T04:10:46.750Z,97206.78
2022-09-28T04:13:20.452Z,97201.75
2022-09-28T04:16:00.848Z,97196.03
2022-09-28T04:18:41.596Z,97182.25
2022-09-28T04:21:38.017Z,97184.59
2022-09-28T04:24:19.030Z,97183.13
2022-09-28T04:26:49.514Z,97165.69
2022-09-28T04:29:23.980Z,97187.28
2022-09-28T04:32:04.325Z,97181.38
2022-09-28T04:34:48.002Z,97171.78
2022-09-28T04:37:34.623Z,97194.97
2022-09-28T04:40:16.804Z,97201.69
2022-09-28T04:43:00.552Z,97192.72
2022-09-28T04:45:35.853Z,97189.16
2022-09-28T04:48:14.070Z,97194.91
2022-09-28T04:51:17.802Z,97190.78
2022-09-28T04:53:52.722Z,97182.41
2022-09-28T04:56:26.740Z,97144.50
2022-09-28T04:58:58.282Z,97175.50
2022-09-28T05:01:33.960Z,97174.03
2022-09-28T05:04:29.697Z,97177.59
2022-09-28T05:07:25.085Z,97171.09
2022-09-28T05:09:55.303Z,97165.25
2022-09-28T05:12:35.095Z,97174.53
2022-09-28T05:15:21.911Z,97181.81
2022-09-28T05:17:57.129Z,97189.88
2022-09-28T05:20:53.011Z,97185.78
2022-09-28T05:23:25.282Z,97183.38
2022-09-28T05:26:03.926Z,97182.03
2022-09-28T05:28:36.823Z,97191.91
2022-09-28T05:31:40.620Z,97188.81
2022-09-28T05:34:43.339Z,97193.69
2022-09-28T05:37:19.572Z,97194.22
2022-09-28T05:39:58.970Z,97192.59
2022-09-28T05:42:27.975Z,97200.09
2022-09-28T05:45:09.469Z,97198.22
2022-09-28T05:47:48.621Z,97183.63
2022-09-28T05:50:25.610Z,97182.28
2022-09-28T05:53:16.303Z,97185.56
2022-09-28T05:55:48.739Z,97187.47
2022-09-28T05:58:23.606Z,97196.66
2022-09-28T06:01:02.394Z,97186.53
2022-09-28T06:03:36.304Z,97186.59
2022-09-28T06:06:13.719Z,97193.59
2022-09-28T06:09:00.202Z,97198.84
2022-09-28T06:11:48.692Z,97196.34
2022-09-28T06:14:42.628Z,97203.44
2022-09-28T06:17:12.889Z,97203.97
2022-09-28T06:20:01.168Z,97204.41
2022-09-28T06:22:52.215Z,97187.97
2022-09-28T06:25:23.570Z,97179.00
2022-09-28T06:28:11.997Z,97189.22
2022-09-28T06:30:45.327Z,97191.91
2022-09-28T06:33:23.385Z,97192.31
2022-09-28T06:36:06.372Z,97188.72
2022-09-28T06:38:38.340Z,97195.97
2022-09-28T06:41:09.252Z,97182.78
2022-09-28T06:43:42.689Z,97179.94
2022-09-28T06:46:15.950Z,97184.53
2022-09-28T06:49:04.203Z,97185.63
2022-09-28T06:52:26.212Z,97172.84
2022-09-28T06:55:37.138Z,97183.41
2022-09-28T06:58:10.870Z,97181.53
2022-09-28T07:00:43.864Z,97189.34
2022-09-28T07:03:31.703Z,97196.22
2022-09-28T07:06:24.766Z,97201.97
2022-09-28T07:09:32.155Z,97187.00
2022-09-28T07:12:07.887Z,97172.19
2022-09-28T07:14:57.691Z,97166.53
2022-09-28T07:17:56.485Z,97163.63
2022-09-28T07:20:46.251Z,97165.13
2022-09-28T07:23:49.378Z,97158.91
2022-09-28T07:26:33.965Z,97165.06
2022-09-28T07:29:30.484Z,97144.56
2022-09-28T07:32:28.339Z,97146.56
2022-09-28T07:35:20.979Z,97153.13
2022-09-28T07:38:08.116Z,97140.34
2022-09-28T07:40:55.492Z,97129.59
2022-09-28T07:46:23.160Z,97150.56
2022-09-28T07:49:11.604Z,97158.31
2022-09-28T07:52:05.164Z,97151.47
2022-09-28T07:54:43.100Z,97151.16
2022-09-28T07:57:33.249Z,97166.63
2022-09-28T08:00:33.980Z,97170.06
2022-09-28T08:03:07.385Z,97157.72
2022-09-28T08:05:45.681Z,97152.91
2022-09-28T08:08:14.484Z,97153.44
2022-09-28T08:10:53.302Z,97131.84
2022-09-28T08:13:50.582Z,97145.38
2022-09-28T08:16:51.984Z,97159.34
2022-09-28T08:20:05.276Z,97160.56
2022-09-28T08:22:35.635Z,97143.59
2022-09-28T08:25:10.961Z,97144.06
2022-09-28T08:27:39.090Z,97140.72
2022-09-28T08:30:08.978Z,97128.47
2022-09-28T08:33:15.411Z,97132.84
2022-09-28T08:35:51.166Z,97138.50
2022-09-28T08:38:25.433Z,97134.69
2022-09-28T08:41:27.210Z,97139.53
2022-09-28T08:44:26.966Z,97126.28
2022-09-28T08:47:46.679Z,97119.34
2022-09-28T08:50:38.106Z,97119.09
2022-09-28T08:53:55.002Z,97127.75
2022-09-28T08:56:55.820Z,97106.56
2022-09-28T08:59:36.304Z,97119.72
2022-09-28T09:02:19.494Z,97103.53
2022-09-28T09:05:15.010Z,97111.53
2022-09-28T09:08:20.940Z,97115.13
2022-09-28T09:11:07.825Z,97113.22
2022-09-28T09:14:22.719Z,97115.16
2022-09-28T09:17:43.019Z,97117.44
2022-09-28T09:20:43.099Z,97118.88
2022-09-28T09:23:40.698Z,97102.78
2022-09-28T09:26:26.330Z,97097.91
2022-09-28T09:29:47.599Z,97101.41
2022-09-28T09:32:50.624Z,97101.16
2022-09-28T09:35:59.403Z,97074.50
2022-09-28T09:39:03.731Z,97096.53
2022-09-28T09:41:52.563Z,97100.03
2022-09-28T09:48:38.433Z,97106.13
2022-09-28T09:52:00.087Z,97102.19
2022-09-28T09:55:06.470Z,97094.28
2022-09-28T09:58:06.154Z,97092.69
2022-09-28T10:00:50.960Z,97086.78
2022-09-28T10:03:46.007Z,97070.22
2022-09-28T10:06:44.283Z,97072.50
2022-09-28T10:09:29.290Z,97060.31
2022-09-28T10:12:12.691Z,97062.78
2022-09-28T10:14:43.915Z,97051.56
2022-09-28T10:17:17.208Z,97046.63
2022-09-28T10:20:05.420Z,97050.72
2022-09-28T10:23:30.943Z,97053.34
2022-09-28T10:26:07.040Z,97036.91
2022-09-28T10:28:44.130Z,97037.28
2022-09-28T10:31:58.353Z,97035.41
2022-09-28T10:34:51.129Z,97032.44
2022-09-28T10:38:05.647Z,97033.09
2022-09-28T10:41:31.963Z,97045.47
2022-09-28T10:44:20.229Z,97031.44
2022-09-28T10:47:49.585Z,97033.63
2022-09-28T10:50:28.391Z,97029.97
2022-09-28T10:53:21.933Z,97028.09
2022-09-28T10:56:08.850Z,97021.88
2022-09-28T10:58:49.739Z,97012.78
2022-09-28T11:01:36.786Z,97013.22
2022-09-28T11:04:10.852Z,97019.91
2022-09-28T11:06:44.410Z,97012.19
2022-09-28T11:09:44.600Z,97006.31
2022-09-28T11:12:21.971Z,97001.81
2022-09-28T11:15:02.309Z,96997.91
2022-09-28T11:17:42.077Z,96986.84
2022-09-28T11:20:36.791Z,96974.16
2022-09-28T11:23:33.820Z,96973.25
2022-09-28T11:26:34.415Z,96977.78
2022-09-28T11:29:04.613Z,96980.91
2022-09-28T11:31:49.180Z,96978.25
2022-09-28T11:34:59.661Z,96968.56
2022-09-28T11:38:10.969Z,96962.88
2022-09-28T11:41:02.963Z,96951.31
2022-09-28T11:44:20.087Z,96952.09
2022-09-28T11:47:39.324Z,96954.59
2022-09-28T11:50:58.165Z,96950.22
2022-09-28T11:54:04.071Z,96946.25
2022-09-28T11:56:52.016Z,96935.72
2022-09-28T11:59:32.175Z,96937.88
2022-09-28T12:02:22.327Z,96937.59
2022-09-28T12:05:20.752Z,96941.47
2022-09-28T12:08:26.449Z,96932.66
2022-09-28T12:11:24.549Z,96931.22
2022-09-28T12:14:25.675Z,96931.03
2022-09-28T12:17:16.591Z,96922.03
2022-09-28T12:20:21.685Z,96924.25
2022-09-28T12:23:39.856Z,96921.34
2022-09-28T12:26:31.043Z,96919.88
2022-09-28T12:29:15.007Z,96921.53
2022-09-28T12:32:03.689Z,96889.53
2022-09-28T12:34:35.638Z,96910.56
2022-09-28T12:37:51.511Z,96914.38
2022-09-28T12:40:41.716Z,96912.50
2022-09-28T12:43:29.557Z,96909.59
2022-09-28T12:46:28.181Z,96904.19
2022-09-28T12:50:33.326Z,96910.34
2022-09-28T12:52:30.576Z,96912.88
2022-09-28T12:55:41.256Z,96913.00
2022-09-28T12:58:48.569Z,96921.47
2022-09-28T13:01:40.362Z,96926.72
2022-09-28T13:04:27.444Z,96931.09
2022-09-28T13:07:33.991Z,96936.88
2022-09-28T13:10:44.582Z,96930.59
2022-09-28T13:14:07.704Z,96928.03
2022-09-28T13:17:05.249Z,96923.47
2022-09-28T13:20:19.670Z,96930.59
2022-09-28T13:23:41.323Z,96930.53
2022-09-28T13:26:41.821Z,96864.44
2022-09-28T13:29:18.986Z,96932.91
2022-09-28T13:32:03.185Z,96940.38
2022-09-28T13:34:41.391Z,96933.72
2022-09-28T13:37:17.864Z,96924.22
2022-09-28T13:40:01.946Z,96920.91
2022-09-28T13:42:51.702Z,96916.25
2022-09-28T13:46:03.353Z,96924.63
2022-09-28T13:49:04.201Z,96921.47
2022-09-28T13:51:52.656Z,96928.72
2022-09-28T13:55:07.924Z,96933.03
2022-09-28T13:58:02.318Z,96942.88
2022-09-28T14:00:51.921Z,96932.25
2022-09-28T14:04:04.002Z,96925.88
2022-09-28T14:06:37.122Z,96937.38
2022-09-28T14:09:42.849Z,96938.50
2022-09-28T14:12:45.325Z,96931.28
2022-09-28T14:15:51.587Z,96931.22
2022-09-28T14:18:40.041Z,96934.72
2022-09-28T14:21:54.617Z,96932.25
2022-09-28T14:24:44.197Z,96925.91
2022-09-28T14:27:50.543Z,96919.22
2022-09-28T14:30:45.595Z,96912.63
2022-09-28T14:33:34.911Z,96905.50
2022-09-28T14:36:45.939Z,96904.53
2022-09-28T14:39:52.108Z,96918.03
2022-09-28T14:42:31.917Z,96895.13
2022-09-28T14:45:16.400Z,96909.84
2022-09-28T14:48:07.928Z,96912.41
2022-09-28T14:50:39.939Z,96917.16
2022-09-28T14:53:19.435Z,96912.94
2022-09-28T14:55:53.544Z,96911.22
2022-09-28T14:58:28.719Z,96914.00
2022-09-28T15:01:15.226Z,96907.38
2022-09-28T15:03:53.229Z,96905.13
2022-09-28T15:09:46.411Z,96895.53
2022-09-28T15:12:36.020Z,96903.56
2022-09-28T15:15:23.661Z,96872.34
2022-09-28T15:18:17.068Z,96886.56
2022-09-28T15:20:56.761Z,96882.50
2022-09-28T15:23:41.648Z,96880.63
2022-09-28T15:26:38.091Z,96887.56
2022-09-28T15:29:18.547Z,96878.16
2022-09-28T15:31:58.584Z,96894.09
2022-09-28T15:34:56.558Z,96896.78
2022-09-28T15:37:40.909Z,96892.06
2022-09-28T15:40:24.320Z,96890.41
2022-09-28T15:42:58.959Z,96892.25
2022-09-28T15:45:45.272Z,96890.59
2022-09-28T15:48:34.515Z,96882.94
2022-09-28T15:51:15.013Z,96888.19
2022-09-28T15:54:08.028Z,96878.09
2022-09-28T15:56:57.356Z,96899.38
2022-09-28T16:00:02.199Z,96899.09
2022-09-28T16:03:08.792Z,96898.53
2022-09-28T16:06:10.675Z,96904.94
2022-09-28T16:08:49.930Z,96913.28
2022-09-28T16:11:46.405Z,96889.47
2022-09-28T16:14:27.469Z,96920.78
2022-09-28T16:17:03.569Z,96920.28
2022-09-28T16:19:40.024Z,96911.19
2022-09-28T16:22:28.799Z,96914.78
2022-09-28T16:25:03.871Z,96908.19
2022-09-28T16:27:45.124Z,96916.81
2022-09-28T16:30:34.202Z,96915.34
2022-09-28T16:33:10.683Z,96906.28
2022-09-28T16:35:44.911Z,96909.06
2022-09-28T16:38:19.317Z,96901.47
2022-09-28T16:40:57.606Z,96901.63
2022-09-28T16:43:38.387Z,96895.34
2022-09-28T16:46:13.275Z,96877.06
2022-09-28T16:49:01.526Z,96895.78
2022-09-28T16:51:31.318Z,96888.00
2022-09-28T16:54:42.285Z,96883.03
2022-09-28T16:57:16.263Z,96897.38
2022-09-28T16:59:46.841Z,96888.88
2022-09-28T17:05:23.295Z,96897.16
2022-09-28T17:08:07.377Z,96876.59
2022-09-28T17:11:02.644Z,96880.31
2022-09-28T17:13:37.792Z,96891.00
2022-09-28T17:19:35.943Z,96889.91
2022-09-28T17:22:14.215Z,96870.31
2022-09-28T17:24:46.821Z,96892.91
2022-09-28T17:27:27.460Z,96900.50
2022-09-28T17:29:58.279Z,96892.53
2022-09-28T17:32:33.194Z,96892.53
2022-09-28T17:35:23.102Z,96885.53
2022-09-28T17:37:53.800Z,96896.56
2022-09-28T17:40:37.278Z,96885.59
2022-09-28T17:43:07.009Z,96889.31
2022-09-28T17:45:52.142Z,96890.41
2022-09-28T17:48:30.773Z,96890.22
2022-09-28T17:51:07.263Z,96895.75
2022-09-28T17:53:38.995Z,96890.47
2022-09-28T17:56:13.159Z,96895.28
2022-09-28T17:58:44.032Z,96892.06
2022-09-28T18:01:30.081Z,96891.69
2022-09-28T18:04:05.848Z,96884.91
2022-09-28T18:06:46.037Z,96883.81
2022-09-28T18:09:30.594Z,96894.97
2022-09-28T18:12:05.067Z,96887.81
2022-09-28T18:14:36.005Z,96885.50
2022-09-28T18:17:07.156Z,96855.00
2022-09-28T18:19:43.108Z,96850.34
2022-09-28T18:22:16.377Z,96847.50
2022-09-28T18:24:48.470Z,96839.81
2022-09-28T18:27:19.113Z,96840.81
2022-09-28T18:29:49.328Z,96845.22
2022-09-28T18:32:27.999Z,96842.09
2022-09-28T18:37:51.238Z,96850.69
2022-09-28T18:40:22.963Z,96852.03
2022-09-28T18:42:55.399Z,96868.09
2022-09-28T18:45:33.850Z,96862.94
2022-09-28T18:48:07.825Z,96863.91
2022-09-28T18:50:37.057Z,96862.31
2022-09-28T18:53:14.910Z,96850.91
2022-09-28T18:55:47.389Z,96878.88
2022-09-28T18:58:21.433Z,96876.66
2022-09-28T19:01:25.240Z,96882.41
2022-09-28T19:03:50.316Z,96885.72
2022-09-28T19:06:37.336Z,96884.00
2022-09-28T19:09:08.402Z,96884.81
2022-09-28T19:11:41.730Z,96883.56
2022-09-28T19:14:21.759Z,96880.88
2022-09-28T19:17:02.522Z,96872.03
2022-09-28T19:19:40.292Z,96881.34
2022-09-28T19:22:12.941Z,96866.47
2022-09-28T19:24:44.050Z,96877.53
2022-09-28T19:27:15.480Z,96811.25
2022-09-28T19:29:49.769Z,96877.97
2022-09-28T19:32:20.609Z,96871.63
2022-09-28T19:34:53.392Z,96869.13
2022-09-28T19:40:12.129Z,96871.28
2022-09-28T19:42:43.156Z,96870.13
2022-09-28T19:45:13.795Z,96873.81
2022-09-28T19:47:49.702Z,96877.38
2022-09-28T19:50:28.058Z,96878.53
2022-09-28T19:53:02.082Z,96910.19
2022-09-28T19:55:37.798Z,96910.44
2022-09-28T19:58:07.040Z,96883.09
2022-09-28T20:00:45.614Z,96887.34
2022-09-28T20:03:21.061Z,96890.00
2022-09-28T20:06:01.339Z,96879.03
2022-09-28T20:08:32.101Z,96882.53
2022-09-28T20:11:06.477Z,96903.72
2022-09-28T20:14:01.889Z,96922.34
2022-09-28T20:16:44.475Z,96944.03
2022-09-28T20:19:21.255Z,96935.19
2022-09-28T20:22:01.410Z,96940.09
2022-09-28T20:24:38.384Z,96905.91
2022-09-28T20:27:11.762Z,96890.50
2022-09-28T20:29:48.384Z,96893.06
2022-09-28T20:32:18.976Z,96882.84
2022-09-28T20:35:04.288Z,96863.91
2022-09-28T20:37:36.866Z,96843.16
2022-09-28T20:40:14.148Z,96847.84
2022-09-28T20:42:45.679Z,96850.63
2022-09-28T20:45:14.871Z,96848.59
2022-09-28T20:47:45.893Z,96857.16
2022-09-28T20:50:17.561Z,96848.22
2022-09-28T20:52:48.451Z,96848.97
2022-09-28T20:55:21.096Z,96822.81
2022-09-28T20:57:50.645Z,96824.34
2022-09-28T21:00:20.924Z,96847.94
2022-09-28T21:03:00.952Z,96840.41
2022-09-28T21:05:40.021Z,96808.34
2022-09-28T21:08:14.555Z,96770.31
2022-09-28T21:10:57.716Z,96770.22
2022-09-28T21:13:29.743Z,96778.03
2022-09-28T21:16:03.293Z,96785.81
2022-09-28T21:18:35.159Z,96797.47
2022-09-28T21:21:16.685Z,96797.72
2022-09-28T21:23:49.171Z,96794.94
2022-09-28T21:26:35.132Z,96833.41
2022-09-28T21:29:13.485Z,96858.47
2022-09-28T21:31:58.217Z,96874.50
2022-09-28T21:34:43.125Z,96886.78
2022-09-28T21:37:13.433Z,96890.16
2022-09-28T21:39:47.099Z,96866.97
2022-09-28T21:42:26.883Z,96875.41
2022-09-28T21:45:01.283Z,96855.31
2022-09-28T21:47:31.922Z,96853.13
2022-09-28T21:50:05.365Z,96859.78
2022-09-28T21:52:36.190Z,96856.56
2022-09-28T21:55:08.605Z,96856.41
2022-09-28T21:57:40.892Z,96855.69
2022-09-28T22:00:14.463Z,96848.09
2022-09-28T22:02:45.066Z,96856.41
2022-09-28T22:05:30.490Z,96862.91
2022-09-28T22:08:01.226Z,96856.94
2022-09-28T22:10:34.371Z,96858.41
2022-09-28T22:13:05.302Z,96845.88
2022-09-28T22:15:33.511Z,96859.28
2022-09-28T22:18:07.712Z,96861.25
2022-09-28T22:20:52.809Z,96858.47
2022-09-28T22:23:27.080Z,96862.13
2022-09-28T22:26:15.250Z,96859.19
2022-09-28T22:28:53.372Z,96860.19
2022-09-28T22:31:36.445Z,96871.03
2022-09-28T22:34:17.901Z,96864.22
2022-09-28T22:37:00.004Z,96871.03
2022-09-28T22:39:37.669Z,96853.69
2022-09-28T22:42:10.460Z,96870.81
2022-09-28T22:44:39.059Z,96868.78
2022-09-28T22:47:12.793Z,96854.00
2022-09-28T22:49:43.278Z,96849.53
2022-09-28T22:52:15.039Z,96845.53
2022-09-28T22:54:52.974Z,96849.25
2022-09-28T22:57:25.216Z,96847.19
2022-09-28T23:00:03.658Z,96866.47
2022-09-28T23:02:43.943Z,96848.06
2022-09-28T23:05:17.368Z,96886.34
2022-09-28T23:07:56.663Z,96886.34
2022-09-28T23:10:27.521Z,96876.28
2022-09-28T23:13:03.228Z,96868.91
2022-09-28T23:15:42.109Z,96859.94
2022-09-28T23:18:13.643Z,96859.72
2022-09-28T23:20:46.537Z,96851.25
2022-09-28T23:23:18.952Z,96869.41
2022-09-28T23:26:03.377Z,96849.81
2022-09-28T23:28:33.684Z,96860.50
2022-09-28T23:31:19.090Z,96852.97
2022-09-28T23:33:55.938Z,96854.97
2022-09-28T23:36:26.284Z,96851.31
2022-09-28T23:39:07.136Z,96869.72
2022-09-28T23:41:41.230Z,96865.03
2022-09-28T23:44:12.317Z,96863.91
2022-09-28T23:46:46.231Z,96871.31
2022-09-28T23:49:17.475Z,96872.47
2022-09-28T23:51:55.175Z,96850.81
2022-09-28T23:54:35.038Z,96862.91
2022-09-28T23:57:08.055Z,96863.44
2022-09-28T23:59:41.230Z,96876.88
